Terminal Aerodrome Forecast
Issued by NWS

Home | Current Version | Previous Version | Text Only | Print | Product List | Glossary On
Versions: 1 2 3 4 5 6 7 8 9 10 11 12 13 14
000
FTUS44 KLZK 021127
TAFHRO
TAF
KHRO 021127Z 0212/0312 25004KT P6SM SCT250
     FM021500 23006KT P6SM SCT250
     FM030000 23003KT P6SM SCT250=

USA.gov is the U.S. government's official web portal to all federal, state and local government web resources and services.